sensor_id;sensor_type;location;lat;lon;timestamp;P1;durP1;ratioP1;P2;durP2;ratioP2
142;SDS011;63667;49.046;8.468;2022-12-18T00:00:00;139.15;;;39.55;;
142;SDS011;63667;49.046;8.468;2022-12-18T00:02:30;143.20;;;40.72;;
142;SDS011;63667;49.046;8.468;2022-12-18T00:05:00;147.40;;;40.42;;
142;SDS011;63667;49.046;8.468;2022-12-18T00:07:27;136.60;;;40.20;;
142;SDS011;63667;49.046;8.468;2022-12-18T00:09:55;151.40;;;40.20;;
142;SDS011;63667;49.046;8.468;2022-12-18T00:12:23;143.02;;;39.30;;
142;SDS011;63667;49.046;8.468;2022-12-18T00:14:54;149.00;;;39.85;;
142;SDS011;63667;49.046;8.468;2022-12-18T00:17:21;149.45;;;40.17;;
142;SDS011;63667;49.046;8.468;2022-12-18T00:19:49;135.80;;;39.63;;
142;SDS011;63667;49.046;8.468;2022-12-18T00:22:17;133.45;;;38.17;;
142;SDS011;63667;49.046;8.468;2022-12-18T00:24:44;141.07;;;38.58;;
142;SDS011;63667;49.046;8.468;2022-12-18T00:27:12;142.95;;;40.83;;
142;SDS011;63667;49.046;8.468;2022-12-18T00:29:40;138.52;;;38.58;;
142;SDS011;63667;49.046;8.468;2022-12-18T00:32:08;149.68;;;41.05;;
142;SDS011;63667;49.046;8.468;2022-12-18T00:34:36;162.88;;;39.70;;
142;SDS011;63667;49.046;8.468;2022-12-18T00:37:03;157.18;;;41.45;;
142;SDS011;63667;49.046;8.468;2022-12-18T00:39:29;142.13;;;37.50;;
142;SDS011;63667;49.046;8.468;2022-12-18T00:41:57;133.95;;;38.65;;
142;SDS011;63667;49.046;8.468;2022-12-18T00:44:42;135.80;;;40.47;;
142;SDS011;63667;49.046;8.468;2022-12-18T00:47:09;153.05;;;38.33;;
142;SDS011;63667;49.046;8.468;2022-12-18T00:49:35;144.43;;;40.72;;
142;SDS011;63667;49.046;8.468;2022-12-18T00:52:02;138.88;;;39.92;;
142;SDS011;63667;49.046;8.468;2022-12-18T00:54:28;117.03;;;37.40;;
142;SDS011;63667;49.046;8.468;2022-12-18T00:56:55;142.45;;;41.83;;
142;SDS011;63667;49.046;8.468;2022-12-18T00:59:23;135.07;;;37.38;;
142;SDS011;63667;49.046;8.468;2022-12-18T01:01:50;151.38;;;39.70;;
142;SDS011;63667;49.046;8.468;2022-12-18T01:04:16;139.05;;;37.05;;
142;SDS011;63667;49.046;8.468;2022-12-18T01:06:42;128.05;;;37.97;;
142;SDS011;63667;49.046;8.468;2022-12-18T01:09:09;149.15;;;38.97;;
142;SDS011;63667;49.046;8.468;2022-12-18T01:11:35;145.60;;;40.33;;
142;SDS011;63667;49.046;8.468;2022-12-18T01:14:01;139.05;;;38.10;;
142;SDS011;63667;49.046;8.468;2022-12-18T01:16:27;144.63;;;38.92;;
142;SDS011;63667;49.046;8.468;2022-12-18T01:18:55;154.38;;;38.45;;
142;SDS011;63667;49.046;8.468;2022-12-18T01:21:23;138.80;;;38.85;;
142;SDS011;63667;49.046;8.468;2022-12-18T01:23:51;128.48;;;41.00;;
142;SDS011;63667;49.046;8.468;2022-12-18T01:26:20;133.48;;;37.42;;
142;SDS011;63667;49.046;8.468;2022-12-18T01:28:48;139.48;;;39.67;;
142;SDS011;63667;49.046;8.468;2022-12-18T01:33:50;136.43;;;38.47;;
142;SDS011;63667;49.046;8.468;2022-12-18T01:36:21;142.98;;;40.33;;
142;SDS011;63667;49.046;8.468;2022-12-18T01:39:01;145.38;;;38.17;;
142;SDS011;63667;49.046;8.468;2022-12-18T01:41:29;133.45;;;37.47;;
142;SDS011;63667;49.046;8.468;2022-12-18T01:50:13;146.05;;;39.10;;
142;SDS011;63667;49.046;8.468;2022-12-18T01:52:51;122.90;;;36.28;;
142;SDS011;63667;49.046;8.468;2022-12-18T01:55:57;153.27;;;39.35;;
142;SDS011;63667;49.046;8.468;2022-12-18T01:58:24;126.50;;;38.17;;
142;SDS011;63667;49.046;8.468;2022-12-18T02:00:55;144.55;;;37.85;;
142;SDS011;63667;49.046;8.468;2022-12-18T02:03:23;141.27;;;39.08;;
142;SDS011;63667;49.046;8.468;2022-12-18T02:11:23;143.07;;;38.58;;
142;SDS011;63667;49.046;8.468;2022-12-18T02:16:48;129.27;;;37.92;;
142;SDS011;63667;49.046;8.468;2022-12-18T02:19:20;137.80;;;38.95;;
142;SDS011;63667;49.046;8.468;2022-12-18T02:22:27;135.27;;;38.08;;
142;SDS011;63667;49.046;8.468;2022-12-18T02:27:52;130.27;;;37.28;;
142;SDS011;63667;49.046;8.468;2022-12-18T02:30:26;135.45;;;37.95;;
142;SDS011;63667;49.046;8.468;2022-12-18T02:32:56;137.35;;;38.92;;
142;SDS011;63667;49.046;8.468;2022-12-18T02:35:27;127.40;;;37.20;;
142;SDS011;63667;49.046;8.468;2022-12-18T02:37:56;136.63;;;38.88;;
142;SDS011;63667;49.046;8.468;2022-12-18T02:40:26;157.57;;;39.38;;
142;SDS011;63667;49.046;8.468;2022-12-18T02:42:54;136.48;;;38.00;;
142;SDS011;63667;49.046;8.468;2022-12-18T02:45:22;138.43;;;38.05;;
142;SDS011;63667;49.046;8.468;2022-12-18T02:47:49;153.63;;;40.30;;
142;SDS011;63667;49.046;8.468;2022-12-18T02:50:26;154.15;;;38.80;;
142;SDS011;63667;49.046;8.468;2022-12-18T02:53:17;165.27;;;42.08;;
142;SDS011;63667;49.046;8.468;2022-12-18T02:56:10;144.98;;;39.45;;
142;SDS011;63667;49.046;8.468;2022-12-18T03:01:25;147.35;;;38.63;;
142;SDS011;63667;49.046;8.468;2022-12-18T03:04:20;148.60;;;39.80;;
142;SDS011;63667;49.046;8.468;2022-12-18T03:06:55;143.88;;;37.78;;
142;SDS011;63667;49.046;8.468;2022-12-18T03:09:32;126.70;;;35.28;;
142;SDS011;63667;49.046;8.468;2022-12-18T03:15:01;143.63;;;37.28;;
142;SDS011;63667;49.046;8.468;2022-12-18T03:17:40;142.65;;;37.70;;
142;SDS011;63667;49.046;8.468;2022-12-18T03:20:12;132.98;;;37.10;;
142;SDS011;63667;49.046;8.468;2022-12-18T03:22:43;135.38;;;38.10;;
142;SDS011;63667;49.046;8.468;2022-12-18T03:25:13;129.60;;;35.05;;
142;SDS011;63667;49.046;8.468;2022-12-18T03:27:47;129.20;;;35.78;;
142;SDS011;63667;49.046;8.468;2022-12-18T03:30:17;124.00;;;36.35;;
142;SDS011;63667;49.046;8.468;2022-12-18T03:32:48;149.43;;;37.45;;
142;SDS011;63667;49.046;8.468;2022-12-18T03:35:40;153.23;;;37.42;;
142;SDS011;63667;49.046;8.468;2022-12-18T03:38:09;150.70;;;36.05;;
142;SDS011;63667;49.046;8.468;2022-12-18T03:43:29;149.40;;;37.03;;
142;SDS011;63667;49.046;8.468;2022-12-18T03:46:15;149.68;;;37.08;;
142;SDS011;63667;49.046;8.468;2022-12-18T03:48:51;135.55;;;35.92;;
142;SDS011;63667;49.046;8.468;2022-12-18T03:54:05;143.98;;;36.95;;
142;SDS011;63667;49.046;8.468;2022-12-18T03:56:36;140.65;;;37.72;;
142;SDS011;63667;49.046;8.468;2022-12-18T03:59:06;134.80;;;36.22;;
142;SDS011;63667;49.046;8.468;2022-12-18T04:01:43;140.95;;;37.50;;
142;SDS011;63667;49.046;8.468;2022-12-18T04:04:18;158.73;;;37.40;;
142;SDS011;63667;49.046;8.468;2022-12-18T04:06:46;148.82;;;37.38;;
142;SDS011;63667;49.046;8.468;2022-12-18T04:09:15;152.05;;;37.78;;
142;SDS011;63667;49.046;8.468;2022-12-18T04:11:42;132.20;;;36.10;;
142;SDS011;63667;49.046;8.468;2022-12-18T04:14:10;149.48;;;36.75;;
142;SDS011;63667;49.046;8.468;2022-12-18T04:16:37;142.77;;;36.95;;
142;SDS011;63667;49.046;8.468;2022-12-18T04:19:05;140.75;;;36.70;;
142;SDS011;63667;49.046;8.468;2022-12-18T04:21:31;141.13;;;36.90;;
142;SDS011;63667;49.046;8.468;2022-12-18T04:23:59;137.90;;;37.78;;
142;SDS011;63667;49.046;8.468;2022-12-18T04:26:26;157.07;;;37.60;;
142;SDS011;63667;49.046;8.468;2022-12-18T04:28:53;138.10;;;35.72;;
142;SDS011;63667;49.046;8.468;2022-12-18T04:31:21;128.77;;;34.83;;
142;SDS011;63667;49.046;8.468;2022-12-18T04:33:48;132.50;;;34.65;;
142;SDS011;63667;49.046;8.468;2022-12-18T04:36:16;134.05;;;35.28;;
142;SDS011;63667;49.046;8.468;2022-12-18T04:38:43;126.30;;;33.85;;
142;SDS011;63667;49.046;8.468;2022-12-18T04:41:11;122.75;;;35.17;;
142;SDS011;63667;49.046;8.468;2022-12-18T04:43:38;137.32;;;33.13;;
142;SDS011;63667;49.046;8.468;2022-12-18T04:46:06;120.57;;;31.80;;
142;SDS011;63667;49.046;8.468;2022-12-18T04:48:34;119.88;;;32.58;;
142;SDS011;63667;49.046;8.468;2022-12-18T04:51:03;117.40;;;33.05;;
142;SDS011;63667;49.046;8.468;2022-12-18T04:53:31;124.28;;;33.88;;
142;SDS011;63667;49.046;8.468;2022-12-18T04:56:02;112.50;;;31.90;;
142;SDS011;63667;49.046;8.468;2022-12-18T04:58:33;114.15;;;31.30;;
142;SDS011;63667;49.046;8.468;2022-12-18T05:01:01;126.25;;;32.63;;
142;SDS011;63667;49.046;8.468;2022-12-18T05:03:28;107.20;;;30.92;;
142;SDS011;63667;49.046;8.468;2022-12-18T05:05:56;109.30;;;32.22;;
142;SDS011;63667;49.046;8.468;2022-12-18T05:08:23;122.88;;;31.77;;
142;SDS011;63667;49.046;8.468;2022-12-18T05:10:57;126.43;;;32.08;;
142;SDS011;63667;49.046;8.468;2022-12-18T05:13:33;177.13;;;31.73;;
142;SDS011;63667;49.046;8.468;2022-12-18T05:16:04;125.53;;;32.47;;
142;SDS011;63667;49.046;8.468;2022-12-18T05:18:32;109.25;;;31.30;;
142;SDS011;63667;49.046;8.468;2022-12-18T05:20:58;113.25;;;32.25;;
142;SDS011;63667;49.046;8.468;2022-12-18T05:23:25;121.70;;;30.48;;
142;SDS011;63667;49.046;8.468;2022-12-18T05:25:53;130.57;;;34.45;;
142;SDS011;63667;49.046;8.468;2022-12-18T05:28:25;132.45;;;32.92;;
142;SDS011;63667;49.046;8.468;2022-12-18T05:30:55;129.85;;;32.22;;
142;SDS011;63667;49.046;8.468;2022-12-18T05:33:24;133.95;;;33.75;;
142;SDS011;63667;49.046;8.468;2022-12-18T05:35:52;133.27;;;34.13;;
142;SDS011;63667;49.046;8.468;2022-12-18T05:38:22;129.85;;;34.72;;
142;SDS011;63667;49.046;8.468;2022-12-18T05:40:50;129.55;;;33.55;;
142;SDS011;63667;49.046;8.468;2022-12-18T05:43:17;134.32;;;32.33;;
142;SDS011;63667;49.046;8.468;2022-12-18T05:45:45;124.72;;;35.35;;
142;SDS011;63667;49.046;8.468;2022-12-18T05:48:12;132.43;;;34.00;;
142;SDS011;63667;49.046;8.468;2022-12-18T05:50:41;138.55;;;36.00;;
142;SDS011;63667;49.046;8.468;2022-12-18T05:53:09;147.25;;;35.30;;
142;SDS011;63667;49.046;8.468;2022-12-18T05:55:37;153.13;;;34.83;;
142;SDS011;63667;49.046;8.468;2022-12-18T05:58:07;132.35;;;34.67;;
142;SDS011;63667;49.046;8.468;2022-12-18T06:00:35;126.43;;;33.25;;
142;SDS011;63667;49.046;8.468;2022-12-18T06:03:07;133.50;;;34.63;;
142;SDS011;63667;49.046;8.468;2022-12-18T06:05:35;156.93;;;37.20;;
142;SDS011;63667;49.046;8.468;2022-12-18T06:08:04;182.10;;;41.38;;
142;SDS011;63667;49.046;8.468;2022-12-18T06:10:31;152.60;;;38.35;;
142;SDS011;63667;49.046;8.468;2022-12-18T06:12:59;150.40;;;38.95;;
142;SDS011;63667;49.046;8.468;2022-12-18T06:15:26;151.90;;;38.72;;
142;SDS011;63667;49.046;8.468;2022-12-18T06:17:52;186.85;;;40.60;;
142;SDS011;63667;49.046;8.468;2022-12-18T06:20:20;160.05;;;37.75;;
142;SDS011;63667;49.046;8.468;2022-12-18T06:22:48;202.68;;;43.70;;
142;SDS011;63667;49.046;8.468;2022-12-18T06:25:14;173.77;;;39.72;;
142;SDS011;63667;49.046;8.468;2022-12-18T06:27:42;195.85;;;38.00;;
142;SDS011;63667;49.046;8.468;2022-12-18T06:30:10;178.27;;;40.85;;
142;SDS011;63667;49.046;8.468;2022-12-18T06:32:44;174.73;;;40.00;;
142;SDS011;63667;49.046;8.468;2022-12-18T06:35:10;197.63;;;40.75;;
142;SDS011;63667;49.046;8.468;2022-12-18T06:37:37;201.05;;;42.40;;
142;SDS011;63667;49.046;8.468;2022-12-18T06:40:05;268.25;;;42.97;;
142;SDS011;63667;49.046;8.468;2022-12-18T06:42:32;195.15;;;42.05;;
142;SDS011;63667;49.046;8.468;2022-12-18T06:44:59;170.75;;;40.83;;
142;SDS011;63667;49.046;8.468;2022-12-18T06:47:25;203.40;;;43.33;;
142;SDS011;63667;49.046;8.468;2022-12-18T06:49:51;166.02;;;40.13;;
142;SDS011;63667;49.046;8.468;2022-12-18T06:52:17;198.25;;;44.08;;
142;SDS011;63667;49.046;8.468;2022-12-18T06:54:46;171.70;;;40.10;;
142;SDS011;63667;49.046;8.468;2022-12-18T06:57:17;169.23;;;41.03;;
142;SDS011;63667;49.046;8.468;2022-12-18T06:59:44;168.35;;;40.90;;
142;SDS011;63667;49.046;8.468;2022-12-18T07:02:11;166.75;;;39.90;;
142;SDS011;63667;49.046;8.468;2022-12-18T07:04:38;158.98;;;38.38;;
142;SDS011;63667;49.046;8.468;2022-12-18T07:07:04;141.85;;;37.88;;
142;SDS011;63667;49.046;8.468;2022-12-18T07:09:30;137.10;;;36.38;;
142;SDS011;63667;49.046;8.468;2022-12-18T07:11:56;133.35;;;35.63;;
142;SDS011;63667;49.046;8.468;2022-12-18T07:14:23;146.57;;;37.25;;
142;SDS011;63667;49.046;8.468;2022-12-18T07:16:49;150.00;;;36.90;;
142;SDS011;63667;49.046;8.468;2022-12-18T07:19:16;123.03;;;35.42;;
142;SDS011;63667;49.046;8.468;2022-12-18T07:21:42;134.88;;;35.47;;
142;SDS011;63667;49.046;8.468;2022-12-18T07:24:09;130.32;;;34.72;;
142;SDS011;63667;49.046;8.468;2022-12-18T07:26:35;134.05;;;33.53;;
142;SDS011;63667;49.046;8.468;2022-12-18T07:29:01;144.50;;;35.63;;
142;SDS011;63667;49.046;8.468;2022-12-18T07:31:27;131.30;;;33.72;;
142;SDS011;63667;49.046;8.468;2022-12-18T07:33:53;124.57;;;34.17;;
142;SDS011;63667;49.046;8.468;2022-12-18T07:36:20;123.75;;;34.20;;
142;SDS011;63667;49.046;8.468;2022-12-18T07:38:46;127.85;;;33.78;;
142;SDS011;63667;49.046;8.468;2022-12-18T07:41:14;119.63;;;32.15;;
142;SDS011;63667;49.046;8.468;2022-12-18T07:43:42;125.53;;;34.00;;
142;SDS011;63667;49.046;8.468;2022-12-18T07:46:08;119.45;;;33.42;;
142;SDS011;63667;49.046;8.468;2022-12-18T07:48:35;136.23;;;33.47;;
142;SDS011;63667;49.046;8.468;2022-12-18T07:51:02;135.57;;;34.55;;
142;SDS011;63667;49.046;8.468;2022-12-18T07:53:31;128.50;;;35.70;;
142;SDS011;63667;49.046;8.468;2022-12-18T07:56:00;130.63;;;33.28;;
142;SDS011;63667;49.046;8.468;2022-12-18T07:58:28;123.38;;;34.28;;
142;SDS011;63667;49.046;8.468;2022-12-18T08:01:01;123.80;;;33.45;;
142;SDS011;63667;49.046;8.468;2022-12-18T08:03:32;127.78;;;33.63;;
142;SDS011;63667;49.046;8.468;2022-12-18T08:06:02;118.88;;;33.72;;
142;SDS011;63667;49.046;8.468;2022-12-18T08:08:30;125.22;;;34.53;;
142;SDS011;63667;49.046;8.468;2022-12-18T08:10:56;116.18;;;33.42;;
142;SDS011;63667;49.046;8.468;2022-12-18T08:13:23;140.30;;;35.53;;
142;SDS011;63667;49.046;8.468;2022-12-18T08:18:24;122.22;;;34.05;;
142;SDS011;63667;49.046;8.468;2022-12-18T08:20:52;123.30;;;34.30;;
142;SDS011;63667;49.046;8.468;2022-12-18T08:23:20;120.95;;;32.75;;
142;SDS011;63667;49.046;8.468;2022-12-18T08:25:47;113.68;;;33.30;;
142;SDS011;63667;49.046;8.468;2022-12-18T08:28:17;108.05;;;32.55;;
142;SDS011;63667;49.046;8.468;2022-12-18T08:30:44;128.45;;;33.50;;
142;SDS011;63667;49.046;8.468;2022-12-18T08:33:12;122.47;;;34.25;;
142;SDS011;63667;49.046;8.468;2022-12-18T08:35:39;124.95;;;33.50;;
142;SDS011;63667;49.046;8.468;2022-12-18T08:38:07;131.10;;;33.72;;
142;SDS011;63667;49.046;8.468;2022-12-18T08:40:35;94.10;;;30.38;;
142;SDS011;63667;49.046;8.468;2022-12-18T08:43:03;116.83;;;32.43;;
142;SDS011;63667;49.046;8.468;2022-12-18T08:45:48;106.97;;;31.55;;
142;SDS011;63667;49.046;8.468;2022-12-18T08:48:15;101.68;;;30.33;;
142;SDS011;63667;49.046;8.468;2022-12-18T08:50:43;115.03;;;31.83;;
142;SDS011;63667;49.046;8.468;2022-12-18T08:53:29;102.32;;;30.45;;
142;SDS011;63667;49.046;8.468;2022-12-18T08:55:56;128.43;;;33.80;;
142;SDS011;63667;49.046;8.468;2022-12-18T08:58:24;111.33;;;32.53;;
142;SDS011;63667;49.046;8.468;2022-12-18T09:00:51;120.40;;;33.50;;
142;SDS011;63667;49.046;8.468;2022-12-18T09:03:19;106.17;;;31.90;;
142;SDS011;63667;49.046;8.468;2022-12-18T09:05:48;121.30;;;31.83;;
142;SDS011;63667;49.046;8.468;2022-12-18T09:08:16;122.13;;;31.83;;
142;SDS011;63667;49.046;8.468;2022-12-18T09:10:44;119.18;;;31.58;;
142;SDS011;63667;49.046;8.468;2022-12-18T09:13:11;113.67;;;29.87;;
142;SDS011;63667;49.046;8.468;2022-12-18T09:15:41;108.37;;;30.60;;
142;SDS011;63667;49.046;8.468;2022-12-18T09:18:13;108.50;;;30.60;;
142;SDS011;63667;49.046;8.468;2022-12-18T09:20:40;108.23;;;30.27;;
142;SDS011;63667;49.046;8.468;2022-12-18T09:23:07;102.17;;;28.50;;
142;SDS011;63667;49.046;8.468;2022-12-18T09:25:35;109.87;;;31.00;;
142;SDS011;63667;49.046;8.468;2022-12-18T09:28:03;104.10;;;29.70;;
142;SDS011;63667;49.046;8.468;2022-12-18T09:30:31;123.83;;;33.20;;
142;SDS011;63667;49.046;8.468;2022-12-18T09:33:00;116.47;;;31.80;;
142;SDS011;63667;49.046;8.468;2022-12-18T09:35:26;117.67;;;33.70;;
142;SDS011;63667;49.046;8.468;2022-12-18T09:37:53;110.67;;;32.80;;
142;SDS011;63667;49.046;8.468;2022-12-18T09:40:21;108.77;;;31.30;;
142;SDS011;63667;49.046;8.468;2022-12-18T09:42:55;119.67;;;34.03;;
142;SDS011;63667;49.046;8.468;2022-12-18T09:45:44;122.13;;;33.60;;
142;SDS011;63667;49.046;8.468;2022-12-18T09:48:25;112.73;;;33.10;;
142;SDS011;63667;49.046;8.468;2022-12-18T09:50:58;122.83;;;33.00;;
142;SDS011;63667;49.046;8.468;2022-12-18T09:53:30;126.47;;;34.50;;
142;SDS011;63667;49.046;8.468;2022-12-18T09:56:03;130.10;;;35.23;;
142;SDS011;63667;49.046;8.468;2022-12-18T09:58:41;94.73;;;31.97;;
142;SDS011;63667;49.046;8.468;2022-12-18T10:01:18;106.40;;;31.30;;
142;SDS011;63667;49.046;8.468;2022-12-18T10:03:49;108.30;;;31.07;;
142;SDS011;63667;49.046;8.468;2022-12-18T10:08:54;121.80;;;31.90;;
142;SDS011;63667;49.046;8.468;2022-12-18T10:16:53;106.50;;;32.20;;
142;SDS011;63667;49.046;8.468;2022-12-18T10:20:02;116.83;;;32.37;;
142;SDS011;63667;49.046;8.468;2022-12-18T10:27:42;112.93;;;32.27;;
142;SDS011;63667;49.046;8.468;2022-12-18T10:30:20;101.03;;;30.40;;
142;SDS011;63667;49.046;8.468;2022-12-18T10:32:48;109.23;;;30.80;;
142;SDS011;63667;49.046;8.468;2022-12-18T10:35:20;115.63;;;31.93;;
142;SDS011;63667;49.046;8.468;2022-12-18T10:40:30;105.40;;;30.83;;
142;SDS011;63667;49.046;8.468;2022-12-18T10:43:05;110.77;;;31.73;;
142;SDS011;63667;49.046;8.468;2022-12-18T10:45:38;110.50;;;32.37;;
142;SDS011;63667;49.046;8.468;2022-12-18T10:48:17;93.07;;;30.03;;
142;SDS011;63667;49.046;8.468;2022-12-18T10:50:46;105.10;;;30.37;;
142;SDS011;63667;49.046;8.468;2022-12-18T10:53:18;96.77;;;30.83;;
142;SDS011;63667;49.046;8.468;2022-12-18T10:55:47;103.57;;;30.80;;
142;SDS011;63667;49.046;8.468;2022-12-18T10:58:22;106.77;;;30.93;;
142;SDS011;63667;49.046;8.468;2022-12-18T11:01:02;99.33;;;31.17;;
142;SDS011;63667;49.046;8.468;2022-12-18T11:03:45;98.43;;;30.57;;
142;SDS011;63667;49.046;8.468;2022-12-18T11:08:45;95.67;;;29.97;;
142;SDS011;63667;49.046;8.468;2022-12-18T11:11:42;103.37;;;30.20;;
142;SDS011;63667;49.046;8.468;2022-12-18T11:14:16;93.17;;;29.00;;
142;SDS011;63667;49.046;8.468;2022-12-18T11:16:48;97.13;;;31.00;;
142;SDS011;63667;49.046;8.468;2022-12-18T11:22:01;97.60;;;30.83;;
142;SDS011;63667;49.046;8.468;2022-12-18T11:24:49;99.53;;;31.40;;
142;SDS011;63667;49.046;8.468;2022-12-18T11:27:20;116.67;;;32.00;;
142;SDS011;63667;49.046;8.468;2022-12-18T11:29:49;85.13;;;30.83;;
142;SDS011;63667;49.046;8.468;2022-12-18T11:32:37;99.03;;;32.00;;
142;SDS011;63667;49.046;8.468;2022-12-18T11:35:13;96.57;;;32.93;;
142;SDS011;63667;49.046;8.468;2022-12-18T11:37:54;93.73;;;31.90;;
142;SDS011;63667;49.046;8.468;2022-12-18T11:40:35;98.63;;;33.87;;
142;SDS011;63667;49.046;8.468;2022-12-18T11:43:18;101.40;;;32.50;;
142;SDS011;63667;49.046;8.468;2022-12-18T11:45:55;96.17;;;32.33;;
142;SDS011;63667;49.046;8.468;2022-12-18T11:48:30;98.60;;;32.90;;
142;SDS011;63667;49.046;8.468;2022-12-18T11:51:23;95.10;;;31.87;;
142;SDS011;63667;49.046;8.468;2022-12-18T11:53:55;105.53;;;32.47;;
142;SDS011;63667;49.046;8.468;2022-12-18T11:56:29;104.23;;;32.60;;
142;SDS011;63667;49.046;8.468;2022-12-18T12:11:00;109.93;;;33.30;;
142;SDS011;63667;49.046;8.468;2022-12-18T12:16:55;101.73;;;33.27;;
142;SDS011;63667;49.046;8.468;2022-12-18T12:31:08;105.30;;;33.77;;
142;SDS011;63667;49.046;8.468;2022-12-18T12:40:13;105.47;;;32.30;;
142;SDS011;63667;49.046;8.468;2022-12-18T12:42:53;118.73;;;34.30;;
142;SDS011;63667;49.046;8.468;2022-12-18T12:45:47;95.57;;;32.23;;
142;SDS011;63667;49.046;8.468;2022-12-18T12:51:38;117.83;;;37.23;;
142;SDS011;63667;49.046;8.468;2022-12-18T12:54:16;108.07;;;35.37;;
142;SDS011;63667;49.046;8.468;2022-12-18T13:05:56;113.63;;;35.37;;
142;SDS011;63667;49.046;8.468;2022-12-18T13:08:58;117.17;;;34.47;;
142;SDS011;63667;49.046;8.468;2022-12-18T13:11:42;106.83;;;34.87;;
142;SDS011;63667;49.046;8.468;2022-12-18T13:14:35;110.80;;;35.13;;
142;SDS011;63667;49.046;8.468;2022-12-18T13:17:32;114.60;;;34.57;;
142;SDS011;63667;49.046;8.468;2022-12-18T13:32:01;116.30;;;35.23;;
142;SDS011;63667;49.046;8.468;2022-12-18T13:34:28;107.30;;;33.97;;
142;SDS011;63667;49.046;8.468;2022-12-18T13:39:57;111.57;;;35.50;;
142;SDS011;63667;49.046;8.468;2022-12-18T13:51:59;105.53;;;34.77;;
142;SDS011;63667;49.046;8.468;2022-12-18T13:54:54;115.73;;;35.00;;
142;SDS011;63667;49.046;8.468;2022-12-18T13:58:17;114.87;;;37.77;;
142;SDS011;63667;49.046;8.468;2022-12-18T14:01:23;107.67;;;34.77;;
142;SDS011;63667;49.046;8.468;2022-12-18T14:06:53;108.03;;;36.60;;
142;SDS011;63667;49.046;8.468;2022-12-18T14:09:29;131.17;;;38.03;;
142;SDS011;63667;49.046;8.468;2022-12-18T14:12:01;132.13;;;38.63;;
142;SDS011;63667;49.046;8.468;2022-12-18T14:14:50;122.57;;;36.27;;
142;SDS011;63667;49.046;8.468;2022-12-18T14:17:18;136.30;;;37.87;;
142;SDS011;63667;49.046;8.468;2022-12-18T14:19:51;129.50;;;38.30;;
142;SDS011;63667;49.046;8.468;2022-12-18T14:22:26;123.37;;;39.23;;
142;SDS011;63667;49.046;8.468;2022-12-18T14:30:33;134.07;;;40.10;;
142;SDS011;63667;49.046;8.468;2022-12-18T14:33:11;124.47;;;40.27;;
142;SDS011;63667;49.046;8.468;2022-12-18T14:35:40;135.17;;;42.30;;
142;SDS011;63667;49.046;8.468;2022-12-18T14:38:36;141.13;;;42.77;;
142;SDS011;63667;49.046;8.468;2022-12-18T14:41:09;157.90;;;43.60;;
142;SDS011;63667;49.046;8.468;2022-12-18T14:43:45;146.13;;;42.33;;
142;SDS011;63667;49.046;8.468;2022-12-18T14:49:04;134.30;;;40.73;;
142;SDS011;63667;49.046;8.468;2022-12-18T14:52:19;130.07;;;41.37;;
142;SDS011;63667;49.046;8.468;2022-12-18T14:54:50;144.57;;;42.57;;
142;SDS011;63667;49.046;8.468;2022-12-18T14:57:24;145.80;;;44.23;;
142;SDS011;63667;49.046;8.468;2022-12-18T15:00:15;147.30;;;43.37;;
142;SDS011;63667;49.046;8.468;2022-12-18T15:02:57;146.73;;;44.40;;
142;SDS011;63667;49.046;8.468;2022-12-18T15:05:26;146.93;;;44.80;;
142;SDS011;63667;49.046;8.468;2022-12-18T15:07:58;149.63;;;47.20;;
142;SDS011;63667;49.046;8.468;2022-12-18T15:10:29;148.70;;;44.20;;
142;SDS011;63667;49.046;8.468;2022-12-18T15:15:44;159.00;;;46.93;;
142;SDS011;63667;49.046;8.468;2022-12-18T15:18:14;145.30;;;45.87;;
142;SDS011;63667;49.046;8.468;2022-12-18T15:20:52;146.83;;;43.40;;
142;SDS011;63667;49.046;8.468;2022-12-18T15:25:59;127.73;;;39.87;;
142;SDS011;63667;49.046;8.468;2022-12-18T15:28:33;136.90;;;41.13;;
142;SDS011;63667;49.046;8.468;2022-12-18T15:31:17;137.87;;;42.33;;
142;SDS011;63667;49.046;8.468;2022-12-18T15:39:20;144.70;;;42.00;;
142;SDS011;63667;49.046;8.468;2022-12-18T15:42:00;129.20;;;39.80;;
142;SDS011;63667;49.046;8.468;2022-12-18T15:44:45;154.83;;;44.87;;
142;SDS011;63667;49.046;8.468;2022-12-18T15:47:14;149.57;;;44.97;;
142;SDS011;63667;49.046;8.468;2022-12-18T15:49:41;140.53;;;41.60;;
142;SDS011;63667;49.046;8.468;2022-12-18T15:52:09;138.23;;;44.70;;
142;SDS011;63667;49.046;8.468;2022-12-18T15:54:51;125.43;;;37.90;;
142;SDS011;63667;49.046;8.468;2022-12-18T15:57:48;140.90;;;37.37;;
142;SDS011;63667;49.046;8.468;2022-12-18T16:00:15;134.70;;;39.07;;
142;SDS011;63667;49.046;8.468;2022-12-18T16:02:49;146.93;;;39.67;;
142;SDS011;63667;49.046;8.468;2022-12-18T16:05:20;133.70;;;37.80;;
142;SDS011;63667;49.046;8.468;2022-12-18T16:07:53;121.53;;;41.63;;
142;SDS011;63667;49.046;8.468;2022-12-18T16:10:24;140.87;;;40.90;;
142;SDS011;63667;49.046;8.468;2022-12-18T16:12:51;148.10;;;39.97;;
142;SDS011;63667;49.046;8.468;2022-12-18T16:15:25;141.87;;;40.90;;
142;SDS011;63667;49.046;8.468;2022-12-18T16:20:47;138.27;;;40.17;;
142;SDS011;63667;49.046;8.468;2022-12-18T16:23:14;138.63;;;39.70;;
142;SDS011;63667;49.046;8.468;2022-12-18T16:25:42;141.40;;;39.93;;
142;SDS011;63667;49.046;8.468;2022-12-18T16:28:09;162.87;;;42.10;;
142;SDS011;63667;49.046;8.468;2022-12-18T16:30:37;152.83;;;44.70;;
142;SDS011;63667;49.046;8.468;2022-12-18T16:33:06;172.43;;;51.80;;
142;SDS011;63667;49.046;8.468;2022-12-18T16:35:34;180.03;;;49.93;;
142;SDS011;63667;49.046;8.468;2022-12-18T16:38:02;165.90;;;46.20;;
142;SDS011;63667;49.046;8.468;2022-12-18T16:40:30;181.97;;;47.83;;
142;SDS011;63667;49.046;8.468;2022-12-18T16:42:59;173.00;;;45.70;;
142;SDS011;63667;49.046;8.468;2022-12-18T16:45:26;195.33;;;53.17;;
142;SDS011;63667;49.046;8.468;2022-12-18T16:48:01;192.67;;;52.27;;
142;SDS011;63667;49.046;8.468;2022-12-18T16:50:44;178.17;;;49.50;;
142;SDS011;63667;49.046;8.468;2022-12-18T16:53:14;166.37;;;48.90;;
142;SDS011;63667;49.046;8.468;2022-12-18T16:55:40;176.73;;;48.13;;
142;SDS011;63667;49.046;8.468;2022-12-18T16:58:08;172.90;;;49.87;;
142;SDS011;63667;49.046;8.468;2022-12-18T17:00:39;179.90;;;48.10;;
142;SDS011;63667;49.046;8.468;2022-12-18T17:03:09;185.73;;;48.00;;
142;SDS011;63667;49.046;8.468;2022-12-18T17:05:36;172.93;;;46.03;;
142;SDS011;63667;49.046;8.468;2022-12-18T17:08:04;174.30;;;47.70;;
142;SDS011;63667;49.046;8.468;2022-12-18T17:10:33;182.63;;;51.77;;
142;SDS011;63667;49.046;8.468;2022-12-18T17:13:01;175.57;;;47.33;;
142;SDS011;63667;49.046;8.468;2022-12-18T17:15:29;185.60;;;45.97;;
142;SDS011;63667;49.046;8.468;2022-12-18T17:17:59;166.70;;;47.40;;
142;SDS011;63667;49.046;8.468;2022-12-18T17:20:29;184.73;;;49.97;;
142;SDS011;63667;49.046;8.468;2022-12-18T17:22:57;177.30;;;46.67;;
142;SDS011;63667;49.046;8.468;2022-12-18T17:25:24;180.30;;;48.03;;
142;SDS011;63667;49.046;8.468;2022-12-18T17:27:55;174.43;;;45.20;;
142;SDS011;63667;49.046;8.468;2022-12-18T17:30:23;157.67;;;42.60;;
142;SDS011;63667;49.046;8.468;2022-12-18T17:32:50;170.03;;;44.87;;